sensor_id;sensor_type;location;lat;lon;timestamp;P1;durP1;ratioP1;P2;durP2;ratioP2
22679;SDS011;11507;44.858;10.374;2022-10-17T00:01:04;21.20;;;13.98;;
22679;SDS011;11507;44.858;10.374;2022-10-17T00:03:31;24.80;;;15.38;;
22679;SDS011;11507;44.858;10.374;2022-10-17T00:05:58;23.80;;;14.68;;
22679;SDS011;11507;44.858;10.374;2022-10-17T00:10:57;23.38;;;14.35;;
22679;SDS011;11507;44.858;10.374;2022-10-17T00:13:25;20.17;;;13.65;;
22679;SDS011;11507;44.858;10.374;2022-10-17T00:15:51;23.67;;;13.50;;
22679;SDS011;11507;44.858;10.374;2022-10-17T00:18:17;22.52;;;14.07;;
22679;SDS011;11507;44.858;10.374;2022-10-17T00:23:09;20.60;;;13.20;;
22679;SDS011;11507;44.858;10.374;2022-10-17T00:25:35;21.75;;;14.35;;
22679;SDS011;11507;44.858;10.374;2022-10-17T00:28:01;20.45;;;13.40;;
22679;SDS011;11507;44.858;10.374;2022-10-17T00:30:28;19.15;;;12.95;;
22679;SDS011;11507;44.858;10.374;2022-10-17T00:35:19;20.38;;;14.13;;
22679;SDS011;11507;44.858;10.374;2022-10-17T00:37:46;21.48;;;14.25;;
22679;SDS011;11507;44.858;10.374;2022-10-17T00:42:38;22.20;;;13.35;;
22679;SDS011;11507;44.858;10.374;2022-10-17T00:47:37;19.30;;;13.60;;
22679;SDS011;11507;44.858;10.374;2022-10-17T00:50:04;20.05;;;13.05;;
22679;SDS011;11507;44.858;10.374;2022-10-17T00:52:31;22.38;;;14.82;;
22679;SDS011;11507;44.858;10.374;2022-10-17T00:55:03;22.92;;;15.25;;
22679;SDS011;11507;44.858;10.374;2022-10-17T00:57:39;21.85;;;14.38;;
22679;SDS011;11507;44.858;10.374;2022-10-17T01:00:08;20.58;;;13.65;;
22679;SDS011;11507;44.858;10.374;2022-10-17T01:02:35;24.17;;;15.32;;
22679;SDS011;11507;44.858;10.374;2022-10-17T01:05:01;24.90;;;14.40;;
22679;SDS011;11507;44.858;10.374;2022-10-17T01:07:28;21.17;;;14.43;;
22679;SDS011;11507;44.858;10.374;2022-10-17T01:09:55;25.15;;;15.05;;
22679;SDS011;11507;44.858;10.374;2022-10-17T01:12:36;25.60;;;15.55;;
22679;SDS011;11507;44.858;10.374;2022-10-17T01:15:28;23.80;;;14.85;;
22679;SDS011;11507;44.858;10.374;2022-10-17T01:31:14;22.45;;;15.13;;
22679;SDS011;11507;44.858;10.374;2022-10-17T01:33:45;25.73;;;16.02;;
22679;SDS011;11507;44.858;10.374;2022-10-17T01:38:48;28.40;;;17.13;;
22679;SDS011;11507;44.858;10.374;2022-10-17T01:44:08;26.23;;;16.30;;
22679;SDS011;11507;44.858;10.374;2022-10-17T01:46:39;24.98;;;14.63;;
22679;SDS011;11507;44.858;10.374;2022-10-17T01:49:08;21.75;;;13.80;;
22679;SDS011;11507;44.858;10.374;2022-10-17T01:54:12;22.73;;;13.43;;
22679;SDS011;11507;44.858;10.374;2022-10-17T01:56:51;22.73;;;13.40;;
22679;SDS011;11507;44.858;10.374;2022-10-17T01:59:23;25.60;;;14.30;;
22679;SDS011;11507;44.858;10.374;2022-10-17T02:01:54;21.17;;;14.55;;
22679;SDS011;11507;44.858;10.374;2022-10-17T02:04:22;24.42;;;15.57;;
22679;SDS011;11507;44.858;10.374;2022-10-17T02:06:50;22.55;;;13.95;;
22679;SDS011;11507;44.858;10.374;2022-10-17T02:09:17;22.85;;;14.00;;
22679;SDS011;11507;44.858;10.374;2022-10-17T02:22:42;22.10;;;15.18;;
22679;SDS011;11507;44.858;10.374;2022-10-17T02:25:20;23.70;;;15.25;;
22679;SDS011;11507;44.858;10.374;2022-10-17T02:28:28;27.10;;;16.73;;
22679;SDS011;11507;44.858;10.374;2022-10-17T02:36:01;26.77;;;16.63;;
22679;SDS011;11507;44.858;10.374;2022-10-17T02:38:33;24.02;;;15.23;;
22679;SDS011;11507;44.858;10.374;2022-10-17T02:41:00;25.60;;;14.88;;
22679;SDS011;11507;44.858;10.374;2022-10-17T02:43:28;21.83;;;14.32;;
22679;SDS011;11507;44.858;10.374;2022-10-17T02:45:54;18.25;;;12.80;;
22679;SDS011;11507;44.858;10.374;2022-10-17T02:51:11;21.77;;;12.68;;
22679;SDS011;11507;44.858;10.374;2022-10-17T02:53:54;20.75;;;13.52;;
22679;SDS011;11507;44.858;10.374;2022-10-17T02:56:45;23.13;;;14.75;;
22679;SDS011;11507;44.858;10.374;2022-10-17T02:59:35;21.15;;;13.25;;
22679;SDS011;11507;44.858;10.374;2022-10-17T03:02:03;23.02;;;15.15;;
22679;SDS011;11507;44.858;10.374;2022-10-17T03:04:29;23.45;;;14.02;;
22679;SDS011;11507;44.858;10.374;2022-10-17T03:09:21;25.38;;;14.65;;
22679;SDS011;11507;44.858;10.374;2022-10-17T03:11:48;21.48;;;13.90;;
22679;SDS011;11507;44.858;10.374;2022-10-17T03:14:15;21.67;;;14.50;;
22679;SDS011;11507;44.858;10.374;2022-10-17T03:16:42;21.85;;;14.63;;
22679;SDS011;11507;44.858;10.374;2022-10-17T03:21:35;22.35;;;15.15;;
22679;SDS011;11507;44.858;10.374;2022-10-17T03:24:03;24.83;;;14.90;;
22679;SDS011;11507;44.858;10.374;2022-10-17T03:26:29;32.33;;;18.67;;
22679;SDS011;11507;44.858;10.374;2022-10-17T03:28:56;28.80;;;17.60;;
22679;SDS011;11507;44.858;10.374;2022-10-17T03:33:50;25.00;;;14.68;;
22679;SDS011;11507;44.858;10.374;2022-10-17T03:36:17;27.73;;;15.38;;
22679;SDS011;11507;44.858;10.374;2022-10-17T03:38:45;22.65;;;14.20;;
22679;SDS011;11507;44.858;10.374;2022-10-17T03:41:11;24.50;;;14.73;;
22679;SDS011;11507;44.858;10.374;2022-10-17T03:43:39;24.17;;;15.20;;
22679;SDS011;11507;44.858;10.374;2022-10-17T03:46:06;22.67;;;15.00;;
22679;SDS011;11507;44.858;10.374;2022-10-17T03:48:33;27.75;;;16.30;;
22679;SDS011;11507;44.858;10.374;2022-10-17T03:50:59;25.42;;;16.60;;
22679;SDS011;11507;44.858;10.374;2022-10-17T03:53:28;27.02;;;16.35;;
22679;SDS011;11507;44.858;10.374;2022-10-17T03:55:55;29.38;;;16.98;;
22679;SDS011;11507;44.858;10.374;2022-10-17T03:58:22;30.10;;;16.60;;
22679;SDS011;11507;44.858;10.374;2022-10-17T04:00:48;27.35;;;15.88;;
22679;SDS011;11507;44.858;10.374;2022-10-17T04:03:14;24.88;;;15.85;;
22679;SDS011;11507;44.858;10.374;2022-10-17T04:08:06;24.48;;;15.20;;
22679;SDS011;11507;44.858;10.374;2022-10-17T04:10:59;26.42;;;15.93;;
22679;SDS011;11507;44.858;10.374;2022-10-17T04:13:27;24.80;;;15.23;;
22679;SDS011;11507;44.858;10.374;2022-10-17T04:15:53;23.10;;;15.65;;
22679;SDS011;11507;44.858;10.374;2022-10-17T04:18:20;25.83;;;15.18;;
22679;SDS011;11507;44.858;10.374;2022-10-17T04:23:12;23.58;;;13.65;;
22679;SDS011;11507;44.858;10.374;2022-10-17T04:25:39;21.83;;;13.43;;
22679;SDS011;11507;44.858;10.374;2022-10-17T04:30:32;24.92;;;13.80;;
22679;SDS011;11507;44.858;10.374;2022-10-17T04:35:26;24.25;;;14.48;;
22679;SDS011;11507;44.858;10.374;2022-10-17T04:37:59;24.67;;;16.23;;
22679;SDS011;11507;44.858;10.374;2022-10-17T04:42:51;27.50;;;15.68;;
22679;SDS011;11507;44.858;10.374;2022-10-17T04:45:20;27.42;;;15.70;;
22679;SDS011;11507;44.858;10.374;2022-10-17T04:47:50;24.88;;;15.73;;
22679;SDS011;11507;44.858;10.374;2022-10-17T04:52:59;23.17;;;13.90;;
22679;SDS011;11507;44.858;10.374;2022-10-17T04:55:26;27.15;;;15.82;;
22679;SDS011;11507;44.858;10.374;2022-10-17T04:57:52;22.50;;;14.45;;
22679;SDS011;11507;44.858;10.374;2022-10-17T05:00:19;22.50;;;13.98;;
22679;SDS011;11507;44.858;10.374;2022-10-17T05:02:54;24.67;;;15.80;;
22679;SDS011;11507;44.858;10.374;2022-10-17T05:07:50;34.20;;;17.95;;
22679;SDS011;11507;44.858;10.374;2022-10-17T05:10:19;30.25;;;17.17;;
22679;SDS011;11507;44.858;10.374;2022-10-17T05:12:48;33.50;;;18.25;;
22679;SDS011;11507;44.858;10.374;2022-10-17T05:15:16;29.45;;;17.15;;
22679;SDS011;11507;44.858;10.374;2022-10-17T05:22:36;33.65;;;19.33;;
22679;SDS011;11507;44.858;10.374;2022-10-17T05:25:04;34.00;;;19.52;;
22679;SDS011;11507;44.858;10.374;2022-10-17T05:27:30;32.97;;;20.38;;
22679;SDS011;11507;44.858;10.374;2022-10-17T05:32:27;34.03;;;19.52;;
22679;SDS011;11507;44.858;10.374;2022-10-17T05:34:54;35.97;;;19.33;;
22679;SDS011;11507;44.858;10.374;2022-10-17T05:37:21;26.10;;;17.33;;
22679;SDS011;11507;44.858;10.374;2022-10-17T05:39:50;30.77;;;18.38;;
22679;SDS011;11507;44.858;10.374;2022-10-17T05:42:16;30.27;;;18.13;;
22679;SDS011;11507;44.858;10.374;2022-10-17T05:44:43;28.80;;;17.77;;
22679;SDS011;11507;44.858;10.374;2022-10-17T05:47:11;37.85;;;20.50;;
22679;SDS011;11507;44.858;10.374;2022-10-17T05:52:03;38.47;;;20.70;;
22679;SDS011;11507;44.858;10.374;2022-10-17T05:54:35;44.30;;;24.13;;
22679;SDS011;11507;44.858;10.374;2022-10-17T05:57:01;43.30;;;23.60;;
22679;SDS011;11507;44.858;10.374;2022-10-17T05:59:30;45.17;;;24.45;;
22679;SDS011;11507;44.858;10.374;2022-10-17T06:02:04;34.47;;;20.02;;
22679;SDS011;11507;44.858;10.374;2022-10-17T06:06:56;40.95;;;23.33;;
22679;SDS011;11507;44.858;10.374;2022-10-17T06:09:22;58.42;;;27.83;;
22679;SDS011;11507;44.858;10.374;2022-10-17T06:11:50;58.90;;;31.98;;
22679;SDS011;11507;44.858;10.374;2022-10-17T06:16:42;120.63;;;41.45;;
22679;SDS011;11507;44.858;10.374;2022-10-17T06:19:08;155.68;;;45.35;;
22679;SDS011;11507;44.858;10.374;2022-10-17T06:21:35;160.68;;;45.80;;
22679;SDS011;11507;44.858;10.374;2022-10-17T06:24:16;127.55;;;45.45;;
22679;SDS011;11507;44.858;10.374;2022-10-17T06:26:42;192.00;;;51.90;;
22679;SDS011;11507;44.858;10.374;2022-10-17T06:29:11;100.38;;;51.20;;
22679;SDS011;11507;44.858;10.374;2022-10-17T06:31:43;146.55;;;52.85;;
22679;SDS011;11507;44.858;10.374;2022-10-17T06:34:10;107.47;;;54.25;;
22679;SDS011;11507;44.858;10.374;2022-10-17T06:36:37;121.60;;;56.08;;
22679;SDS011;11507;44.858;10.374;2022-10-17T06:41:39;106.20;;;53.90;;
22679;SDS011;11507;44.858;10.374;2022-10-17T06:44:10;106.15;;;55.40;;
22679;SDS011;11507;44.858;10.374;2022-10-17T06:47:00;114.38;;;55.95;;
22679;SDS011;11507;44.858;10.374;2022-10-17T06:49:26;124.35;;;55.95;;
22679;SDS011;11507;44.858;10.374;2022-10-17T06:52:02;105.25;;;53.88;;
22679;SDS011;11507;44.858;10.374;2022-10-17T06:54:42;154.38;;;56.20;;
22679;SDS011;11507;44.858;10.374;2022-10-17T06:57:38;139.55;;;57.55;;
22679;SDS011;11507;44.858;10.374;2022-10-17T07:00:20;150.30;;;57.03;;
22679;SDS011;11507;44.858;10.374;2022-10-17T07:02:51;139.10;;;57.50;;
22679;SDS011;11507;44.858;10.374;2022-10-17T07:05:19;133.68;;;56.17;;
22679;SDS011;11507;44.858;10.374;2022-10-17T07:07:46;118.72;;;56.50;;
22679;SDS011;11507;44.858;10.374;2022-10-17T07:10:12;144.50;;;57.47;;
22679;SDS011;11507;44.858;10.374;2022-10-17T07:12:39;150.25;;;55.22;;
22679;SDS011;11507;44.858;10.374;2022-10-17T07:17:32;97.90;;;51.75;;
22679;SDS011;11507;44.858;10.374;2022-10-17T07:22:24;153.13;;;51.00;;
22679;SDS011;11507;44.858;10.374;2022-10-17T07:24:55;141.10;;;53.90;;
22679;SDS011;11507;44.858;10.374;2022-10-17T07:27:44;123.10;;;52.47;;
22679;SDS011;11507;44.858;10.374;2022-10-17T07:30:10;94.35;;;52.92;;
22679;SDS011;11507;44.858;10.374;2022-10-17T07:32:39;99.15;;;51.65;;
22679;SDS011;11507;44.858;10.374;2022-10-17T07:35:07;112.55;;;51.95;;
22679;SDS011;11507;44.858;10.374;2022-10-17T07:37:34;80.43;;;49.42;;
22679;SDS011;11507;44.858;10.374;2022-10-17T07:40:00;93.82;;;45.35;;
22679;SDS011;11507;44.858;10.374;2022-10-17T07:42:26;88.32;;;43.28;;
22679;SDS011;11507;44.858;10.374;2022-10-17T07:44:53;61.08;;;39.33;;
22679;SDS011;11507;44.858;10.374;2022-10-17T07:47:20;63.90;;;37.78;;
22679;SDS011;11507;44.858;10.374;2022-10-17T07:49:47;53.20;;;36.25;;
22679;SDS011;11507;44.858;10.374;2022-10-17T07:54:41;54.00;;;35.17;;
22679;SDS011;11507;44.858;10.374;2022-10-17T07:57:08;50.22;;;35.42;;
22679;SDS011;11507;44.858;10.374;2022-10-17T07:59:34;52.97;;;36.47;;
22679;SDS011;11507;44.858;10.374;2022-10-17T08:02:02;49.50;;;35.78;;
22679;SDS011;11507;44.858;10.374;2022-10-17T08:04:29;48.42;;;34.95;;
22679;SDS011;11507;44.858;10.374;2022-10-17T08:06:55;49.55;;;35.25;;
22679;SDS011;11507;44.858;10.374;2022-10-17T08:09:22;48.85;;;34.65;;
22679;SDS011;11507;44.858;10.374;2022-10-17T08:11:48;45.33;;;33.95;;
22679;SDS011;11507;44.858;10.374;2022-10-17T08:14:14;42.78;;;32.78;;
22679;SDS011;11507;44.858;10.374;2022-10-17T08:16:41;42.90;;;31.85;;
22679;SDS011;11507;44.858;10.374;2022-10-17T08:19:08;40.97;;;30.20;;
22679;SDS011;11507;44.858;10.374;2022-10-17T08:21:36;46.45;;;31.52;;
22679;SDS011;11507;44.858;10.374;2022-10-17T08:24:03;43.17;;;31.17;;
22679;SDS011;11507;44.858;10.374;2022-10-17T08:26:29;41.05;;;29.33;;
22679;SDS011;11507;44.858;10.374;2022-10-17T08:28:57;42.58;;;31.77;;
22679;SDS011;11507;44.858;10.374;2022-10-17T08:31:28;42.58;;;31.70;;
22679;SDS011;11507;44.858;10.374;2022-10-17T08:33:54;41.05;;;31.45;;
22679;SDS011;11507;44.858;10.374;2022-10-17T08:36:21;42.00;;;30.15;;
22679;SDS011;11507;44.858;10.374;2022-10-17T08:38:47;42.38;;;31.65;;
22679;SDS011;11507;44.858;10.374;2022-10-17T08:46:54;37.78;;;30.02;;
22679;SDS011;11507;44.858;10.374;2022-10-17T08:52:34;39.63;;;30.15;;
22679;SDS011;11507;44.858;10.374;2022-10-17T08:55:41;44.20;;;31.17;;
22679;SDS011;11507;44.858;10.374;2022-10-17T09:00:44;36.75;;;28.67;;
22679;SDS011;11507;44.858;10.374;2022-10-17T09:14:01;35.05;;;28.58;;
22679;SDS011;11507;44.858;10.374;2022-10-17T09:19:24;36.58;;;29.05;;
22679;SDS011;11507;44.858;10.374;2022-10-17T09:25:01;38.28;;;28.88;;
22679;SDS011;11507;44.858;10.374;2022-10-17T09:30:15;37.05;;;29.13;;
22679;SDS011;11507;44.858;10.374;2022-10-17T09:32:48;36.15;;;28.45;;
22679;SDS011;11507;44.858;10.374;2022-10-17T09:35:15;41.08;;;28.42;;
22679;SDS011;11507;44.858;10.374;2022-10-17T09:37:43;38.30;;;29.10;;
22679;SDS011;11507;44.858;10.374;2022-10-17T09:40:16;37.45;;;28.55;;
22679;SDS011;11507;44.858;10.374;2022-10-17T09:42:49;35.78;;;28.80;;
22679;SDS011;11507;44.858;10.374;2022-10-17T09:45:20;37.20;;;29.23;;
22679;SDS011;11507;44.858;10.374;2022-10-17T09:48:01;33.83;;;27.40;;
22679;SDS011;11507;44.858;10.374;2022-10-17T09:50:34;38.10;;;27.60;;
22679;SDS011;11507;44.858;10.374;2022-10-17T09:53:02;34.90;;;27.48;;
22679;SDS011;11507;44.858;10.374;2022-10-17T09:55:45;39.10;;;29.27;;
22679;SDS011;11507;44.858;10.374;2022-10-17T09:58:20;36.33;;;29.40;;
22679;SDS011;11507;44.858;10.374;2022-10-17T10:00:46;33.10;;;27.92;;
22679;SDS011;11507;44.858;10.374;2022-10-17T10:03:14;38.50;;;28.98;;
22679;SDS011;11507;44.858;10.374;2022-10-17T10:05:56;44.38;;;31.23;;
22679;SDS011;11507;44.858;10.374;2022-10-17T10:08:25;38.22;;;28.85;;
22679;SDS011;11507;44.858;10.374;2022-10-17T10:13:27;36.33;;;28.70;;
22679;SDS011;11507;44.858;10.374;2022-10-17T10:15:54;35.88;;;28.05;;
22679;SDS011;11507;44.858;10.374;2022-10-17T10:18:48;31.95;;;26.15;;
22679;SDS011;11507;44.858;10.374;2022-10-17T10:26:42;38.50;;;28.73;;
22679;SDS011;11507;44.858;10.374;2022-10-17T10:32:06;35.83;;;29.80;;
22679;SDS011;11507;44.858;10.374;2022-10-17T10:34:33;35.53;;;28.92;;
22679;SDS011;11507;44.858;10.374;2022-10-17T10:37:04;37.13;;;29.67;;
22679;SDS011;11507;44.858;10.374;2022-10-17T10:39:43;34.83;;;28.27;;
22679;SDS011;11507;44.858;10.374;2022-10-17T10:42:25;31.92;;;26.90;;
22679;SDS011;11507;44.858;10.374;2022-10-17T10:44:56;33.15;;;26.77;;
22679;SDS011;11507;44.858;10.374;2022-10-17T10:47:27;34.88;;;29.50;;
22679;SDS011;11507;44.858;10.374;2022-10-17T10:55:43;37.72;;;28.30;;
22679;SDS011;11507;44.858;10.374;2022-10-17T11:07:26;31.70;;;26.65;;
22679;SDS011;11507;44.858;10.374;2022-10-17T11:10:13;32.00;;;26.63;;
22679;SDS011;11507;44.858;10.374;2022-10-17T11:15:46;33.20;;;28.50;;
22679;SDS011;11507;44.858;10.374;2022-10-17T11:18:25;38.08;;;28.23;;
22679;SDS011;11507;44.858;10.374;2022-10-17T11:20:56;39.03;;;29.25;;
22679;SDS011;11507;44.858;10.374;2022-10-17T11:26:07;35.17;;;28.95;;
22679;SDS011;11507;44.858;10.374;2022-10-17T11:28:39;35.85;;;28.67;;
22679;SDS011;11507;44.858;10.374;2022-10-17T11:31:09;36.35;;;29.95;;
22679;SDS011;11507;44.858;10.374;2022-10-17T11:36:10;35.30;;;28.98;;
22679;SDS011;11507;44.858;10.374;2022-10-17T11:38:40;34.22;;;28.67;;
22679;SDS011;11507;44.858;10.374;2022-10-17T11:41:14;34.42;;;28.67;;
22679;SDS011;11507;44.858;10.374;2022-10-17T11:44:24;33.42;;;27.75;;
22679;SDS011;11507;44.858;10.374;2022-10-17T11:52:43;37.07;;;28.43;;
22679;SDS011;11507;44.858;10.374;2022-10-17T11:55:21;36.00;;;29.13;;
22679;SDS011;11507;44.858;10.374;2022-10-17T12:06:16;32.90;;;26.80;;
22679;SDS011;11507;44.858;10.374;2022-10-17T12:09:06;37.03;;;27.38;;
22679;SDS011;11507;44.858;10.374;2022-10-17T12:11:59;30.55;;;26.02;;
22679;SDS011;11507;44.858;10.374;2022-10-17T12:16:58;31.23;;;26.42;;
22679;SDS011;11507;44.858;10.374;2022-10-17T12:19:25;32.08;;;24.45;;
22679;SDS011;11507;44.858;10.374;2022-10-17T12:38:23;26.75;;;22.77;;
22679;SDS011;11507;44.858;10.374;2022-10-17T12:40:50;29.65;;;23.70;;
22679;SDS011;11507;44.858;10.374;2022-10-17T12:56:38;39.42;;;33.85;;
22679;SDS011;11507;44.858;10.374;2022-10-17T12:59:26;31.83;;;26.13;;
22679;SDS011;11507;44.858;10.374;2022-10-17T13:01:53;28.13;;;21.63;;
22679;SDS011;11507;44.858;10.374;2022-10-17T13:04:23;24.67;;;21.20;;
22679;SDS011;11507;44.858;10.374;2022-10-17T13:06:54;29.13;;;22.77;;
22679;SDS011;11507;44.858;10.374;2022-10-17T13:12:01;24.73;;;21.25;;
22679;SDS011;11507;44.858;10.374;2022-10-17T13:30:44;20.90;;;17.10;;
22679;SDS011;11507;44.858;10.374;2022-10-17T13:35:46;21.60;;;17.77;;
22679;SDS011;11507;44.858;10.374;2022-10-17T13:38:13;24.73;;;20.00;;
22679;SDS011;11507;44.858;10.374;2022-10-17T13:40:41;23.77;;;18.30;;
22679;SDS011;11507;44.858;10.374;2022-10-17T13:43:19;21.80;;;17.88;;
22679;SDS011;11507;44.858;10.374;2022-10-17T13:45:52;22.27;;;18.42;;
22679;SDS011;11507;44.858;10.374;2022-10-17T13:48:22;22.25;;;18.02;;
22679;SDS011;11507;44.858;10.374;2022-10-17T13:50:53;24.42;;;18.08;;
22679;SDS011;11507;44.858;10.374;2022-10-17T13:58:43;21.17;;;18.50;;
22679;SDS011;11507;44.858;10.374;2022-10-17T14:01:14;23.83;;;19.00;;
22679;SDS011;11507;44.858;10.374;2022-10-17T14:03:41;25.17;;;19.75;;
22679;SDS011;11507;44.858;10.374;2022-10-17T14:06:13;23.95;;;18.80;;
22679;SDS011;11507;44.858;10.374;2022-10-17T14:11:55;24.13;;;17.42;;
22679;SDS011;11507;44.858;10.374;2022-10-17T14:14:16;22.58;;;16.45;;
22679;SDS011;11507;44.858;10.374;2022-10-17T14:16:45;25.23;;;17.40;;
22679;SDS011;11507;44.858;10.374;2022-10-17T14:19:19;23.45;;;16.73;;
22679;SDS011;11507;44.858;10.374;2022-10-17T14:24:15;22.63;;;16.25;;
22679;SDS011;11507;44.858;10.374;2022-10-17T14:26:51;23.98;;;16.17;;
22679;SDS011;11507;44.858;10.374;2022-10-17T14:29:28;24.50;;;17.30;;
22679;SDS011;11507;44.858;10.374;2022-10-17T14:32:05;23.33;;;15.68;;
22679;SDS011;11507;44.858;10.374;2022-10-17T14:34:35;26.80;;;17.48;;
22679;SDS011;11507;44.858;10.374;2022-10-17T14:38:04;30.27;;;20.15;;
22679;SDS011;11507;44.858;10.374;2022-10-17T14:39:58;25.60;;;17.73;;
22679;SDS011;11507;44.858;10.374;2022-10-17T14:42:25;26.98;;;19.42;;
22679;SDS011;11507;44.858;10.374;2022-10-17T14:44:52;28.15;;;19.17;;
22679;SDS011;11507;44.858;10.374;2022-10-17T14:47:20;26.90;;;19.13;;
22679;SDS011;11507;44.858;10.374;2022-10-17T14:49:50;27.75;;;18.17;;
22679;SDS011;11507;44.858;10.374;2022-10-17T14:52:28;31.67;;;19.60;;
22679;SDS011;11507;44.858;10.374;2022-10-17T14:54:56;29.02;;;19.20;;
22679;SDS011;11507;44.858;10.374;2022-10-17T14:57:25;28.13;;;17.90;;
22679;SDS011;11507;44.858;10.374;2022-10-17T14:59:57;27.73;;;16.10;;
22679;SDS011;11507;44.858;10.374;2022-10-17T15:02:24;27.70;;;16.77;;
22679;SDS011;11507;44.858;10.374;2022-10-17T15:04:52;26.08;;;16.77;;
22679;SDS011;11507;44.858;10.374;2022-10-17T15:07:19;24.35;;;16.58;;
22679;SDS011;11507;44.858;10.374;2022-10-17T15:09:47;24.67;;;15.95;;
22679;SDS011;11507;44.858;10.374;2022-10-17T15:12:15;23.17;;;16.40;;
22679;SDS011;11507;44.858;10.374;2022-10-17T15:14:43;23.23;;;16.10;;
22679;SDS011;11507;44.858;10.374;2022-10-17T15:17:13;23.90;;;17.05;;
22679;SDS011;11507;44.858;10.374;2022-10-17T15:19:44;27.77;;;17.30;;
22679;SDS011;11507;44.858;10.374;2022-10-17T15:22:10;29.55;;;18.38;;
22679;SDS011;11507;44.858;10.374;2022-10-17T15:24:37;27.27;;;16.88;;
22679;SDS011;11507;44.858;10.374;2022-10-17T15:27:24;28.90;;;17.50;;
22679;SDS011;11507;44.858;10.374;2022-10-17T15:29:50;26.15;;;17.10;;
22679;SDS011;11507;44.858;10.374;2022-10-17T15:32:17;29.33;;;19.35;;
22679;SDS011;11507;44.858;10.374;2022-10-17T15:34:43;31.52;;;18.98;;
22679;SDS011;11507;44.858;10.374;2022-10-17T15:37:14;27.83;;;18.75;;
22679;SDS011;11507;44.858;10.374;2022-10-17T15:39:50;27.20;;;18.40;;
22679;SDS011;11507;44.858;10.374;2022-10-17T15:42:20;28.70;;;18.38;;
22679;SDS011;11507;44.858;10.374;2022-10-17T15:44:53;29.73;;;19.00;;
22679;SDS011;11507;44.858;10.374;2022-10-17T15:47:29;29.73;;;18.90;;
22679;SDS011;11507;44.858;10.374;2022-10-17T15:50:00;27.55;;;17.60;;
22679;SDS011;11507;44.858;10.374;2022-10-17T15:52:26;31.77;;;19.88;;
22679;SDS011;11507;44.858;10.374;2022-10-17T15:54:52;30.83;;;18.95;;
22679;SDS011;11507;44.858;10.374;2022-10-17T15:57:22;29.70;;;18.95;;
22679;SDS011;11507;44.858;10.374;2022-10-17T15:59:52;40.08;;;19.83;;
22679;SDS011;11507;44.858;10.374;2022-10-17T16:02:21;29.35;;;18.48;;
22679;SDS011;11507;44.858;10.374;2022-10-17T16:04:49;29.50;;;18.48;;
22679;SDS011;11507;44.858;10.374;2022-10-17T16:07:16;30.08;;;18.45;;
22679;SDS011;11507;44.858;10.374;2022-10-17T16:09:43;26.42;;;16.58;;
22679;SDS011;11507;44.858;10.374;2022-10-17T16:12:10;27.48;;;18.02;;
22679;SDS011;11507;44.858;10.374;2022-10-17T16:14:40;28.08;;;18.23;;
22679;SDS011;11507;44.858;10.374;2022-10-17T16:17:08;30.23;;;17.83;;
22679;SDS011;11507;44.858;10.374;2022-10-17T16:19:40;27.60;;;18.17;;
22679;SDS011;11507;44.858;10.374;2022-10-17T16:22:15;29.33;;;17.67;;
22679;SDS011;11507;44.858;10.374;2022-10-17T16:24:44;27.30;;;17.27;;
22679;SDS011;11507;44.858;10.374;2022-10-17T16:27:10;28.65;;;17.75;;
22679;SDS011;11507;44.858;10.374;2022-10-17T16:29:36;28.55;;;18.40;;
22679;SDS011;11507;44.858;10.374;2022-10-17T16:32:02;31.23;;;18.50;;
22679;SDS011;11507;44.858;10.374;2022-10-17T16:34:28;33.03;;;19.02;;
22679;SDS011;11507;44.858;10.374;2022-10-17T16:36:55;29.17;;;19.33;;
22679;SDS011;11507;44.858;10.374;2022-10-17T16:39:20;26.20;;;17.88;;
22679;SDS011;11507;44.858;10.374;2022-10-17T16:41:48;28.55;;;17.63;;
22679;SDS011;11507;44.858;10.374;2022-10-17T16:44:14;28.00;;;16.92;;
22679;SDS011;11507;44.858;10.374;2022-10-17T16:46:41;28.63;;;18.65;;
22679;SDS011;11507;44.858;10.374;2022-10-17T16:49:08;28.35;;;18.33;;
22679;SDS011;11507;44.858;10.374;2022-10-17T16:51:34;31.13;;;19.05;;
22679;SDS011;11507;44.858;10.374;2022-10-17T16:54:00;25.75;;;17.42;;
22679;SDS011;11507;44.858;10.374;2022-10-17T16:56:28;31.17;;;17.70;;
22679;SDS011;11507;44.858;10.374;2022-10-17T16:58:57;28.58;;;17.15;;
22679;SDS011;11507;44.858;10.374;2022-10-17T17:01:24;30.58;;;18.73;;
22679;SDS011;11507;44.858;10.374;2022-10-17T17:03:51;30.15;;;18.45;;
22679;SDS011;11507;44.858;10.374;2022-10-17T17:06:18;32.15;;;19.77;;
22679;SDS011;11507;44.858;10.374;2022-10-17T17:08:51;36.25;;;20.77;;
22679;SDS011;11507;44.858;10.374;2022-10-17T17:11:19;31.95;;;19.65;;
22679;SDS011;11507;44.858;10.374;2022-10-17T17:13:47;31.45;;;19.05;;
22679;SDS011;11507;44.858;10.374;2022-10-17T17:16:14;38.47;;;22.25;;
22679;SDS011;11507;44.858;10.374;2022-10-17T17:18:47;32.05;;;20.42;;
22679;SDS011;11507;44.858;10.374;2022-10-17T17:21:17;41.65;;;20.92;;
22679;SDS011;11507;44.858;10.374;2022-10-17T17:23:43;34.47;;;21.60;;
22679;SDS011;11507;44.858;10.374;2022-10-17T17:26:10;32.20;;;20.38;;
22679;SDS011;11507;44.858;10.374;2022-10-17T17:28:38;34.63;;;20.23;;
22679;SDS011;11507;44.858;10.374;2022-10-17T17:31:06;33.63;;;20.90;;
22679;SDS011;11507;44.858;10.374;2022-10-17T17:33:34;33.17;;;19.48;;
22679;SDS011;11507;44.858;10.374;2022-10-17T17:36:02;30.67;;;18.13;;
22679;SDS011;11507;44.858;10.374;2022-10-17T17:38:29;28.38;;;16.77;;
22679;SDS011;11507;44.858;10.374;2022-10-17T17:40:56;29.98;;;17.33;;
22679;SDS011;11507;44.858;10.374;2022-10-17T17:43:22;26.38;;;17.00;;
22679;SDS011;11507;44.858;10.374;2022-10-17T17:45:48;27.45;;;17.50;;
22679;SDS011;11507;44.858;10.374;2022-10-17T17:48:14;26.02;;;16.65;;
22679;SDS011;11507;44.858;10.374;2022-10-17T17:50:41;24.42;;;16.23;;
22679;SDS011;11507;44.858;10.374;2022-10-17T17:53:08;28.73;;;16.52;;
22679;SDS011;11507;44.858;10.374;2022-10-17T17:55:35;27.77;;;16.00;;
22679;SDS011;11507;44.858;10.374;2022-10-17T17:58:01;32.45;;;17.90;;
22679;SDS011;11507;44.858;10.374;2022-10-17T18:00:28;39.95;;;23.08;;
22679;SDS011;11507;44.858;10.374;2022-10-17T18:02:54;40.92;;;23.33;;
22679;SDS011;11507;44.858;10.374;2022-10-17T18:05:21;42.50;;;24.48;;
22679;SDS011;11507;44.858;10.374;2022-10-17T18:07:47;46.95;;;25.23;;
22679;SDS011;11507;44.858;10.374;2022-10-17T18:10:13;42.60;;;26.13;;
22679;SDS011;11507;44.858;10.374;2022-10-17T18:12:39;55.95;;;34.30;;
22679;SDS011;11507;44.858;10.374;2022-10-17T18:15:05;47.35;;;30.15;;
22679;SDS011;11507;44.858;10.374;2022-10-17T18:17:32;61.10;;;36.60;;
22679;SDS011;11507;44.858;10.374;2022-10-17T18:19:58;63.80;;;37.00;;
22679;SDS011;11507;44.858;10.374;2022-10-17T18:22:24;57.25;;;31.98;;
22679;SDS011;11507;44.858;10.374;2022-10-17T18:24:49;52.17;;;28.58;;
22679;SDS011;11507;44.858;10.374;2022-10-17T18:27:15;48.92;;;27.83;;
22679;SDS011;11507;44.858;10.374;2022-10-17T18:29:41;47.85;;;26.85;;